Time;durP1;ratioP1;P1;durP2;ratioP2;P2;SDS_P1;SDS_P2;PMS_P1;PMS_P2;Temp;Humidity;BMP_temperature;BMP_pressure;BME280_temperature;BME280_humidity;BME280_pressure;Samples;Min_cycle;Max_cycle;Signal;HPM_P1;HPM_P2
2021/04/22 00:02:13;;;;;;;12.90;9.97;;;9.40;84.70;;;;;;5060271;28;20280;-86
2021/04/22 00:04:40;;;;;;;16.47;10.90;;;9.40;83.80;;;;;;5061047;28;20198;-86
2021/04/22 00:07:07;;;;;;;13.60;9.88;;;9.50;83.40;;;;;;5066392;28;20229;-87
2021/04/22 00:09:33;;;;;;;15.27;11.27;;;9.50;82.40;;;;;;5057610;28;20212;-87
2021/04/22 00:12:01;;;;;;;12.10;9.68;;;9.70;82.20;;;;;;5065548;28;20255;-86
2021/04/22 00:14:27;;;;;;;12.05;10.05;;;9.70;81.60;;;;;;5057893;28;20208;-86
2021/04/22 00:16:54;;;;;;;12.80;9.82;;;9.70;81.00;;;;;;5059802;28;20320;-86
2021/04/22 00:19:20;;;;;;;13.20;10.43;;;9.70;81.20;;;;;;5060111;28;20198;-88
2021/04/22 00:21:47;;;;;;;13.35;10.40;;;9.70;80.90;;;;;;5059147;28;20237;-87
2021/04/22 00:24:13;;;;;;;12.85;9.98;;;9.70;81.30;;;;;;5055901;28;20248;-86
2021/04/22 00:26:40;;;;;;;12.85;10.00;;;9.60;81.40;;;;;;5057699;28;20232;-86
2021/04/22 00:29:07;;;;;;;12.30;9.98;;;9.60;81.60;;;;;;5062507;28;20202;-87
2021/04/22 00:31:34;;;;;;;14.45;9.95;;;9.70;81.50;;;;;;5056993;28;20999;-86
2021/04/22 00:34:00;;;;;;;10.45;9.35;;;9.70;81.30;;;;;;5060070;28;20213;-87
2021/04/22 00:36:27;;;;;;;13.75;10.25;;;9.60;81.40;;;;;;5059424;28;20222;-86
2021/04/22 00:38:53;;;;;;;12.13;9.90;;;9.60;81.60;;;;;;5059084;28;20657;-87
2021/04/22 00:41:20;;;;;;;11.85;9.80;;;9.70;81.40;;;;;;5061335;28;20221;-87
2021/04/22 00:43:47;;;;;;;11.30;9.50;;;9.80;81.00;;;;;;5056341;28;20206;-86
2021/04/22 00:46:14;;;;;;;12.13;9.70;;;9.90;81.70;;;;;;5057512;28;20663;-88
2021/04/22 00:48:40;;;;;;;12.77;10.10;;;9.90;81.70;;;;;;5059091;28;20210;-87
2021/04/22 00:51:07;;;;;;;12.70;10.27;;;9.90;82.20;;;;;;5056762;28;20208;-86
2021/04/22 00:53:33;;;;;;;11.48;9.88;;;9.90;82.20;;;;;;5058117;28;20241;-87
2021/04/22 00:56:00;;;;;;;11.23;9.50;;;9.90;82.00;;;;;;5057789;28;20205;-87
2021/04/22 00:58:26;;;;;;;12.75;9.60;;;9.90;82.10;;;;;;5052058;28;20700;-86
2021/04/22 01:00:55;;;;;;;12.55;9.88;;;9.90;82.20;;;;;;5052858;28;20212;-86
2021/04/22 01:03:23;;;;;;;13.02;10.43;;;9.90;81.70;;;;;;5054755;28;20214;-87
2021/04/22 01:05:54;;;;;;;15.27;9.68;;;9.90;82.30;;;;;;5062876;28;20234;-87
2021/04/22 01:08:22;;;;;;;14.48;10.20;;;9.70;82.70;;;;;;5064282;28;20221;-87
2021/04/22 01:10:49;;;;;;;11.85;9.90;;;9.70;83.20;;;;;;5056656;28;20205;-86
2021/04/22 01:13:15;;;;;;;11.73;9.77;;;9.60;83.70;;;;;;5057120;28;20600;-88
2021/04/22 01:15:42;;;;;;;11.68;10.23;;;9.70;85.50;;;;;;5056589;28;20201;-87
2021/04/22 01:18:09;;;;;;;12.48;10.02;;;9.70;86.10;;;;;;5061188;28;20275;-87
2021/04/22 01:20:39;;;;;;;13.80;10.50;;;9.60;86.10;;;;;;5060964;28;20201;-86
2021/04/22 01:23:07;;;;;;;12.52;9.98;;;9.40;87.50;;;;;;5048257;28;20586;-86
2021/04/22 01:25:36;;;;;;;13.25;10.75;;;9.20;88.50;;;;;;5054326;28;20205;-87
2021/04/22 01:28:04;;;;;;;11.13;9.50;;;9.30;87.20;;;;;;5057946;28;20264;-86
2021/04/22 01:30:32;;;;;;;14.75;10.88;;;9.20;86.40;;;;;;5059798;28;20197;-86
2021/04/22 01:32:59;;;;;;;13.82;9.82;;;9.30;86.60;;;;;;5053616;28;20225;-86
2021/04/22 01:35:29;;;;;;;15.25;10.52;;;9.20;85.60;;;;;;5058925;28;20208;-87
2021/04/22 01:37:55;;;;;;;18.42;10.48;;;9.20;83.60;;;;;;5056858;28;20225;-87
2021/04/22 01:40:23;;;;;;;11.80;9.98;;;9.30;85.10;;;;;;5063114;28;20306;-88
2021/04/22 01:42:51;;;;;;;12.43;9.97;;;9.30;85.10;;;;;;5057010;28;20245;-88
2021/04/22 01:45:18;;;;;;;11.20;9.30;;;9.40;84.70;;;;;;5064338;28;20657;-87
2021/04/22 01:47:45;;;;;;;10.95;9.20;;;9.50;82.80;;;;;;5055281;28;20225;-86
2021/04/22 01:50:16;;;;;;;10.60;8.93;;;9.60;80.90;;;;;;5063543;28;20209;-86
2021/04/22 01:52:43;;;;;;;11.57;8.95;;;9.70;80.20;;;;;;5053711;28;20217;-87
2021/04/22 01:55:12;;;;;;;10.80;9.30;;;9.60;81.30;;;;;;5057007;28;20571;-86
2021/04/22 01:57:40;;;;;;;14.87;7.83;;;9.50;81.10;;;;;;5057519;28;20232;-86
2021/04/22 02:00:10;;;;;;;8.33;7.43;;;9.50;79.10;;;;;;5054624;28;20212;-87
2021/04/22 02:02:37;;;;;;;7.18;5.90;;;9.50;77.90;;;;;;5056648;28;20233;-87
2021/04/22 02:05:04;;;;;;;13.37;9.07;;;9.70;74.60;;;;;;5054912;28;20649;-86
2021/04/22 02:07:31;;;;;;;210.73;121.22;;;10.00;69.70;;;;;;5054459;28;20245;-87
2021/04/22 02:09:57;;;;;;;26.90;17.25;;;10.10;70.30;;;;;;5055135;28;20202;-87
2021/04/22 02:12:23;;;;;;;9.30;6.90;;;10.20;68.60;;;;;;5063049;28;20217;-86
2021/04/22 02:14:51;;;;;;;6.75;5.80;;;10.20;67.50;;;;;;5061628;28;20206;-87
2021/04/22 02:17:17;;;;;;;6.22;5.38;;;10.10;68.70;;;;;;5057328;28;20225;-86
2021/04/22 02:19:44;;;;;;;8.35;5.97;;;10.00;68.70;;;;;;5059081;28;20217;-86
2021/04/22 02:22:10;;;;;;;17.33;11.32;;;9.90;71.30;;;;;;5056737;28;20222;-87
2021/04/22 02:24:36;;;;;;;6.13;5.53;;;9.90;70.90;;;;;;5059044;28;20204;-88
2021/04/22 02:27:04;;;;;;;15.27;10.27;;;9.90;70.50;;;;;;5055869;28;20716;-87
2021/04/22 02:29:30;;;;;;;10.18;6.20;;;9.80;70.50;;;;;;5060211;28;20202;-87
2021/04/22 02:31:57;;;;;;;6.70;5.18;;;9.80;68.70;;;;;;5057506;28;20240;-86
2021/04/22 02:34:24;;;;;;;10.20;7.80;;;9.90;69.50;;;;;;5056194;28;20194;-87
2021/04/22 02:36:50;;;;;;;6.78;5.18;;;9.80;69.80;;;;;;5062095;28;20230;-87
2021/04/22 02:39:16;;;;;;;6.43;5.65;;;9.80;70.30;;;;;;5059555;28;20194;-86
2021/04/22 02:41:43;;;;;;;6.25;5.40;;;9.70;72.50;;;;;;5061330;28;20243;-87
2021/04/22 02:44:09;;;;;;;7.35;5.18;;;9.80;74.10;;;;;;5049494;28;20194;-86
2021/04/22 02:46:35;;;;;;;5.85;5.20;;;9.80;72.70;;;;;;5063491;28;20221;-86
2021/04/22 02:49:03;;;;;;;6.75;5.85;;;9.80;73.80;;;;;;5059906;28;20198;-87
2021/04/22 02:51:29;;;;;;;6.60;5.30;;;9.80;74.70;;;;;;5052999;28;20218;-87
2021/04/22 02:53:55;;;;;;;5.95;5.10;;;9.80;73.50;;;;;;5065819;28;20198;-86
2021/04/22 02:56:22;;;;;;;5.93;5.10;;;9.80;74.40;;;;;;5056303;28;20232;-86
2021/04/22 02:58:48;;;;;;;6.85;5.32;;;9.70;74.60;;;;;;5062226;28;20217;-86
2021/04/22 03:01:15;;;;;;;7.50;5.30;;;9.60;74.60;;;;;;5063639;28;20247;-86
2021/04/22 03:03:41;;;;;;;7.45;4.93;;;9.50;74.50;;;;;;5065851;28;20221;-86
2021/04/22 03:06:09;;;;;;;5.75;5.15;;;9.50;76.20;;;;;;5065684;28;20200;-86
2021/04/22 03:08:35;;;;;;;5.45;4.80;;;9.40;77.10;;;;;;5061896;28;20671;-87
2021/04/22 03:11:01;;;;;;;5.65;5.15;;;9.30;77.40;;;;;;5057717;28;20213;-86
2021/04/22 03:13:28;;;;;;;6.47;5.15;;;9.30;78.50;;;;;;5062337;28;20208;-86
2021/04/22 03:15:54;;;;;;;6.25;5.15;;;9.20;79.50;;;;;;5059699;28;20597;-87
2021/04/22 03:18:20;;;;;;;7.13;5.38;;;9.20;80.60;;;;;;5060291;28;20699;-87
2021/04/22 03:20:47;;;;;;;6.88;5.32;;;9.20;82.00;;;;;;5065362;28;20222;-86
2021/04/22 03:23:14;;;;;;;5.50;4.97;;;9.20;81.20;;;;;;5057063;28;20224;-87
2021/04/22 03:25:41;;;;;;;6.05;5.15;;;9.30;81.30;;;;;;5069233;28;20642;-86
2021/04/22 03:28:07;;;;;;;6.93;5.53;;;9.30;81.30;;;;;;5068214;28;20223;-87
2021/04/22 03:30:34;;;;;;;7.43;5.38;;;9.30;81.10;;;;;;5074407;28;20251;-86
2021/04/22 03:33:01;;;;;;;6.03;5.13;;;9.30;81.40;;;;;;5068818;28;20225;-87
2021/04/22 03:35:28;;;;;;;6.20;5.60;;;9.30;82.00;;;;;;5075457;28;20198;-86
2021/04/22 03:37:55;;;;;;;8.68;6.78;;;9.20;82.50;;;;;;5067541;28;20676;-87
2021/04/22 03:40:24;;;;;;;12.88;8.50;;;9.30;83.20;;;;;;5047975;28;20288;-86
2021/04/22 03:42:50;;;;;;;10.63;6.75;;;9.20;84.50;;;;;;5074214;28;20217;-87
2021/04/22 03:45:18;;;;;;;7.70;6.72;;;9.20;84.90;;;;;;5066548;28;20205;-86
2021/04/22 03:47:44;;;;;;;23.98;14.63;;;9.20;85.10;;;;;;5073024;28;20225;-87
2021/04/22 03:50:13;;;;;;;9.00;7.60;;;9.10;86.80;;;;;;5067941;28;20203;-86
2021/04/22 03:52:40;;;;;;;10.07;8.20;;;9.10;87.20;;;;;;5064250;28;20702;-86
2021/04/22 03:55:09;;;;;;;10.65;8.77;;;8.90;88.50;;;;;;5073270;28;20197;-86
2021/04/22 03:57:38;;;;;;;9.77;8.10;;;8.80;90.10;;;;;;5072514;28;20236;-86
2021/04/22 04:00:06;;;;;;;11.77;9.53;;;8.80;90.40;;;;;;5069674;28;20194;-86
2021/04/22 04:02:32;;;;;;;10.37;9.23;;;8.70;90.40;;;;;;5069918;28;20224;-87
2021/04/22 04:04:59;;;;;;;11.17;9.03;;;8.60;90.40;;;;;;5065302;28;20212;-86
2021/04/22 04:07:25;;;;;;;10.93;9.80;;;8.50;91.10;;;;;;5067683;28;20704;-86
2021/04/22 04:09:52;;;;;;;13.07;10.17;;;8.40;91.60;;;;;;5058708;28;20213;-86
2021/04/22 04:12:18;;;;;;;10.87;9.57;;;8.40;91.70;;;;;;5056097;28;20218;-86
2021/04/22 04:14:45;;;;;;;13.27;9.77;;;8.40;92.20;;;;;;5058742;28;20198;-86
2021/04/22 04:17:12;;;;;;;13.30;10.37;;;8.40;92.10;;;;;;5067665;28;20229;-86
2021/04/22 04:19:38;;;;;;;12.70;10.10;;;8.50;92.10;;;;;;5062418;28;20202;-86
2021/04/22 04:22:05;;;;;;;13.60;10.13;;;8.50;92.00;;;;;;5066013;28;20229;-87
2021/04/22 04:24:31;;;;;;;13.70;10.70;;;8.50;92.00;;;;;;5063872;28;20550;-88
2021/04/22 04:26:57;;;;;;;12.40;9.37;;;8.40;92.00;;;;;;5067298;28;20224;-87
2021/04/22 04:29:24;;;;;;;12.87;10.57;;;8.40;92.10;;;;;;5061730;28;20267;-90
2021/04/22 04:31:51;;;;;;;13.23;9.97;;;8.40;92.00;;;;;;5059113;28;20697;-86
2021/04/22 04:34:19;;;;;;;12.07;9.93;;;8.40;92.00;;;;;;5067258;28;20203;-86
2021/04/22 04:36:46;;;;;;;12.23;10.53;;;8.50;92.00;;;;;;5050696;28;20234;-87
2021/04/22 04:39:14;;;;;;;13.30;10.47;;;8.50;92.00;;;;;;5062582;28;20557;-87
2021/04/22 04:41:41;;;;;;;13.97;11.57;;;8.50;91.80;;;;;;5060414;28;20264;-87
2021/04/22 04:44:07;;;;;;;13.20;10.83;;;8.50;91.90;;;;;;5058869;28;20242;-86
2021/04/22 04:46:35;;;;;;;12.63;11.00;;;8.50;92.10;;;;;;5060816;28;20234;-86
2021/04/22 04:49:05;;;;;;;13.40;10.63;;;8.50;92.00;;;;;;5059651;28;20201;-86
2021/04/22 04:51:31;;;;;;;12.63;10.63;;;8.50;92.20;;;;;;5054934;28;20697;-87
2021/04/22 04:53:58;;;;;;;14.80;11.20;;;8.50;92.00;;;;;;5055755;28;20255;-86
2021/04/22 04:56:24;;;;;;;14.03;10.80;;;8.60;92.00;;;;;;5053412;28;20229;-87
2021/04/22 04:58:50;;;;;;;14.77;11.23;;;8.60;92.10;;;;;;5066427;28;20221;-88
2021/04/22 05:01:17;;;;;;;15.43;11.35;;;8.60;92.10;;;;;;5057775;28;20316;-89
2021/04/22 05:03:44;;;;;;;12.52;10.93;;;8.60;92.00;;;;;;5063150;28;20208;-86
2021/04/22 05:06:11;;;;;;;13.47;11.63;;;8.60;92.10;;;;;;5059665;28;20198;-87
2021/04/22 05:08:38;;;;;;;15.27;11.45;;;8.70;91.70;;;;;;5053138;28;20229;-86
2021/04/22 05:11:04;;;;;;;15.02;11.73;;;8.80;91.50;;;;;;5052657;28;20217;-86
2021/04/22 05:13:31;;;;;;;13.52;11.70;;;8.80;91.70;;;;;;5054114;28;20209;-87
2021/04/22 05:15:58;;;;;;;15.07;12.05;;;8.90;91.60;;;;;;5058790;28;20205;-87
2021/04/22 05:18:25;;;;;;;14.13;11.68;;;8.90;91.20;;;;;;5062747;28;20745;-88
2021/04/22 05:20:52;;;;;;;13.80;11.23;;;9.20;90.50;;;;;;5055119;28;20243;-88
2021/04/22 05:23:20;;;;;;;15.27;12.10;;;9.30;90.50;;;;;;5053259;28;20205;-88
2021/04/22 05:25:47;;;;;;;14.88;10.65;;;9.30;90.50;;;;;;5050246;28;20743;-86
2021/04/22 05:28:13;;;;;;;13.63;11.10;;;9.40;90.50;;;;;;5051894;28;20229;-86
2021/04/22 05:30:41;;;;;;;13.98;11.40;;;9.70;90.20;;;;;;5058220;28;20213;-88
2021/04/22 05:33:09;;;;;;;15.05;11.70;;;9.70;88.10;;;;;;5053064;28;20229;-86
2021/04/22 05:35:35;;;;;;;15.20;11.52;;;9.80;88.10;;;;;;5056834;28;20278;-87
2021/04/22 05:38:02;;;;;;;15.45;11.70;;;9.90;86.50;;;;;;5058055;28;20229;-87
2021/04/22 05:40:29;;;;;;;16.55;11.45;;;9.90;85.80;;;;;;5050698;28;20190;-86
2021/04/22 05:42:56;;;;;;;17.98;11.82;;;9.90;86.90;;;;;;5049909;28;20237;-87
2021/04/22 05:45:23;;;;;;;18.75;11.93;;;9.90;87.50;;;;;;5054982;28;20664;-86
2021/04/22 05:47:50;;;;;;;15.50;12.00;;;10.00;85.40;;;;;;5045234;28;20308;-87
2021/04/22 05:50:17;;;;;;;14.38;11.93;;;10.10;84.60;;;;;;5062252;28;20217;-87
2021/04/22 05:52:44;;;;;;;14.45;11.68;;;10.10;84.10;;;;;;5054153;28;20225;-86
2021/04/22 05:55:12;;;;;;;16.33;11.55;;;10.30;83.80;;;;;;5057074;28;20573;-87
2021/04/22 05:57:40;;;;;;;12.80;11.05;;;10.40;82.50;;;;;;5054913;28;20244;-87
2021/04/22 06:00:09;;;;;;;15.77;11.43;;;10.40;81.90;;;;;;5062608;28;20321;-86
2021/04/22 06:02:36;;;;;;;13.52;11.50;;;10.60;81.20;;;;;;5054562;28;20234;-86
2021/04/22 06:05:02;;;;;;;12.50;11.18;;;10.80;79.30;;;;;;5060860;28;20193;-86
2021/04/22 06:07:29;;;;;;;16.58;10.80;;;10.80;78.50;;;;;;5059660;28;20218;-87
2021/04/22 06:09:56;;;;;;;12.80;11.23;;;10.90;77.50;;;;;;5036869;28;20232;-87
2021/04/22 06:12:22;;;;;;;12.10;10.35;;;11.00;76.60;;;;;;5063201;28;20244;-87
2021/04/22 06:14:50;;;;;;;13.05;10.82;;;11.10;76.00;;;;;;5061378;28;20262;-89
2021/04/22 06:17:18;;;;;;;12.35;10.40;;;11.00;77.40;;;;;;5059774;28;20276;-87
2021/04/22 06:19:44;;;;;;;12.25;10.45;;;11.50;74.70;;;;;;5050630;28;20210;-86
2021/04/22 06:22:12;;;;;;;12.40;10.20;;;11.70;73.20;;;;;;5056194;28;20245;-87
2021/04/22 06:24:38;;;;;;;16.65;10.82;;;12.00;71.00;;;;;;5053561;28;20202;-88
2021/04/22 06:27:05;;;;;;;12.63;10.52;;;12.30;69.90;;;;;;5050463;28;20244;-88
2021/04/22 06:29:32;;;;;;;12.40;10.48;;;12.30;68.00;;;;;;5046277;28;20207;-88
2021/04/22 06:32:06;;;;;;;15.65;10.70;;;12.30;66.20;;;;;;5054396;28;20240;-87
2021/04/22 06:34:33;;;;;;;13.35;10.32;;;12.40;65.20;;;;;;5055919;28;20198;-86
2021/04/22 06:37:02;;;;;;;12.13;10.40;;;12.50;64.90;;;;;;5052548;28;20224;-86
2021/04/22 06:39:31;;;;;;;15.15;10.20;;;12.60;64.40;;;;;;5073010;28;20505;-86
2021/04/22 06:42:06;;;;;;;14.73;10.95;;;12.60;62.80;;;;;;5064271;28;20743;-86
2021/04/22 06:44:37;;;;;;;15.77;11.48;;;12.70;63.00;;;;;;5063392;28;20202;-89
2021/04/22 06:47:12;;;;;;;13.98;11.10;;;12.90;59.70;;;;;;5067007;28;20605;-86
2021/04/22 06:49:38;;;;;;;17.70;11.85;;;12.90;61.30;;;;;;5056859;28;20202;-89
2021/04/22 06:55:28;;;;;;;13.27;11.27;;;13.40;60.00;;;;;;5031033;28;20193;-87
2021/04/22 06:58:06;;;;;;;15.98;11.88;;;13.80;55.90;;;;;;5049327;28;20237;-88
2021/04/22 07:00:39;;;;;;;14.48;11.93;;;14.10;54.70;;;;;;5071751;28;20212;-88
2021/04/22 07:03:07;;;;;;;15.82;12.70;;;13.80;54.90;;;;;;5060071;28;20229;-87
2021/04/22 07:05:38;;;;;;;14.52;12.02;;;13.50;57.20;;;;;;5067217;28;20216;-89
2021/04/22 07:11:37;;;;;;;15.93;12.75;;;13.10;58.60;;;;;;4967144;28;21201;-86
2021/04/22 07:14:09;;;;;;;18.63;12.10;;;13.00;59.00;;;;;;4994056;28;20715;-88
2021/04/22 07:16:37;;;;;;;18.95;13.40;;;12.90;58.90;;;;;;4999596;28;20823;-86
2021/04/22 07:19:05;;;;;;;17.40;13.90;;;12.70;60.40;;;;;;5003927;28;20224;-87
2021/04/22 07:21:31;;;;;;;20.33;13.38;;;12.40;61.00;;;;;;5018128;28;20239;-87
2021/04/22 07:23:58;;;;;;;20.67;12.75;;;12.40;63.60;;;;;;5062571;28;20205;-87
2021/04/22 07:26:25;;;;;;;16.60;12.82;;;12.80;63.30;;;;;;5055493;28;20693;-86
2021/04/22 07:28:52;;;;;;;16.02;12.98;;;13.20;58.30;;;;;;5061738;28;20751;-87
2021/04/22 07:34:29;;;;;;;15.57;12.02;;;13.90;55.70;;;;;;5020709;28;20701;-87
2021/04/22 07:36:55;;;;;;;16.27;13.15;;;14.40;52.70;;;;;;5059577;28;20448;-86
2021/04/22 07:39:22;;;;;;;19.90;13.15;;;14.60;51.00;;;;;;5052855;28;20202;-87
2021/04/22 07:41:48;;;;;;;17.92;13.57;;;14.90;51.30;;;;;;5044380;28;20218;-89
2021/04/22 07:44:15;;;;;;;30.08;13.73;;;14.70;51.10;;;;;;5057907;28;20688;-89
2021/04/22 07:46:41;;;;;;;17.10;14.00;;;14.20;50.70;;;;;;5053760;28;20644;-88
2021/04/22 07:49:07;;;;;;;18.85;14.45;;;14.00;52.30;;;;;;5051891;28;20238;-88
2021/04/22 07:51:34;;;;;;;18.10;15.80;;;13.90;53.00;;;;;;5051231;28;20222;-86
2021/04/22 07:54:01;;;;;;;16.92;12.95;;;14.00;52.90;;;;;;5054656;28;20202;-87
2021/04/22 07:56:27;;;;;;;14.57;12.95;;;14.50;50.90;;;;;;5051399;28;20225;-89
2021/04/22 07:58:54;;;;;;;15.27;13.00;;;14.80;51.20;;;;;;5057267;28;20229;-90
2021/04/22 08:01:20;;;;;;;17.90;12.98;;;15.00;50.80;;;;;;5053375;28;20737;-90
2021/04/22 08:03:46;;;;;;;18.35;13.25;;;15.10;49.00;;;;;;5044969;28;20210;-89
2021/04/22 08:06:13;;;;;;;17.35;13.98;;;14.90;50.20;;;;;;5047026;28;20483;-89
2021/04/22 08:08:40;;;;;;;16.08;13.02;;;15.10;48.50;;;;;;5045950;28;20212;-88
2021/04/22 08:11:07;;;;;;;19.05;13.75;;;15.40;48.30;;;;;;5047104;28;20201;-88
2021/04/22 08:13:33;;;;;;;18.13;13.60;;;15.20;48.30;;;;;;5043252;28;20279;-88
2021/04/22 08:16:00;;;;;;;19.17;13.18;;;15.20;47.70;;;;;;5046006;28;20205;-90
2021/04/22 08:18:27;;;;;;;15.20;13.18;;;15.10;49.50;;;;;;5045453;28;20221;-89
2021/04/22 08:20:56;;;;;;;15.30;13.32;;;15.20;48.80;;;;;;5050802;28;20210;-94
2021/04/22 08:23:24;;;;;;;15.85;12.88;;;15.10;47.90;;;;;;5046094;28;20232;-89
2021/04/22 08:25:54;;;;;;;14.65;12.80;;;15.00;50.00;;;;;;5047524;28;20289;-89
2021/04/22 08:28:24;;;;;;;15.68;12.65;;;15.40;47.10;;;;;;5050169;28;20217;-88
2021/04/22 08:30:54;;;;;;;16.42;13.55;;;15.60;47.00;;;;;;5049478;28;20592;-91
2021/04/22 08:33:25;;;;;;;16.27;12.88;;;16.10;45.80;;;;;;5043832;28;20229;-90
2021/04/22 08:35:52;;;;;;;16.38;13.55;;;16.30;44.60;;;;;;5039663;28;20656;-88
2021/04/22 08:38:20;;;;;;;13.98;12.52;;;16.40;44.20;;;;;;5050797;28;20230;-90
2021/04/22 08:40:47;;;;;;;15.85;13.43;;;16.20;42.90;;;;;;5045929;28;20220;-91
2021/04/22 08:43:14;;;;;;;15.50;13.43;;;15.80;43.80;;;;;;5045220;28;20695;-90
2021/04/22 08:45:42;;;;;;;16.77;14.32;;;15.90;45.00;;;;;;5044458;28;20220;-90
2021/04/22 08:48:11;;;;;;;15.80;13.38;;;15.50;45.20;;;;;;5056667;28;20221;-90
2021/04/22 08:50:38;;;;;;;17.48;13.95;;;15.60;45.30;;;;;;5048346;28;20246;-87
2021/04/22 08:53:06;;;;;;;17.60;14.20;;;15.70;46.10;;;;;;5051783;28;20226;-88
2021/04/22 08:55:34;;;;;;;15.20;13.60;;;15.70;47.70;;;;;;5046505;28;20276;-87
2021/04/22 08:58:02;;;;;;;16.65;13.32;;;16.20;43.80;;;;;;5044435;28;20222;-89
2021/04/22 09:00:33;;;;;;;16.65;14.15;;;16.80;43.20;;;;;;5052171;28;20201;-90
2021/04/22 09:02:59;;;;;;;15.82;13.68;;;17.10;42.10;;;;;;5049023;28;20230;-91
2021/04/22 09:05:26;;;;;;;16.73;13.30;;;17.00;43.40;;;;;;5056152;28;20213;-92
2021/04/22 09:07:52;;;;;;;15.38;13.48;;;16.80;41.20;;;;;;5047514;28;20232;-89
2021/04/22 09:10:27;;;;;;;16.08;14.38;;;16.70;42.00;;;;;;5044392;28;20194;-88
2021/04/22 09:12:59;;;;;;;15.10;13.50;;;16.60;42.80;;;;;;5049789;28;20308;-88
2021/04/22 09:15:27;;;;;;;15.38;13.18;;;17.00;41.10;;;;;;5055128;28;20202;-87
2021/04/22 09:18:03;;;;;;;15.60;13.48;;;17.20;41.10;;;;;;5042703;28;20240;-88
2021/04/22 09:20:33;;;;;;;18.83;14.63;;;17.50;41.80;;;;;;5044762;28;20198;-88
2021/04/22 09:23:00;;;;;;;16.10;13.73;;;17.30;40.60;;;;;;5043690;28;20280;-88
2021/04/22 09:25:28;;;;;;;16.23;14.25;;;17.00;40.80;;;;;;5045128;28;20714;-89
2021/04/22 09:28:12;;;;;;;16.05;14.35;;;17.30;40.50;;;;;;5048804;28;20228;-89
2021/04/22 09:30:41;;;;;;;21.05;15.25;;;17.30;41.40;;;;;;5044698;28;20613;-90
2021/04/22 09:33:19;;;;;;;17.75;14.68;;;16.80;41.50;;;;;;5046517;28;20294;-88
2021/04/22 09:35:46;;;;;;;16.42;14.43;;;16.70;42.40;;;;;;5051382;28;20204;-85
2021/04/22 09:38:14;;;;;;;17.23;15.05;;;16.40;43.00;;;;;;5059250;28;20255;-90
2021/04/22 09:40:44;;;;;;;19.85;15.02;;;16.10;43.90;;;;;;5049588;28;20277;-87
2021/04/22 09:43:13;;;;;;;18.67;14.50;;;16.10;44.10;;;;;;5056905;28;20247;-86
2021/04/22 09:45:43;;;;;;;15.80;13.93;;;16.20;44.10;;;;;;5066530;28;20218;-88
2021/04/22 09:48:20;;;;;;;16.85;15.05;;;16.40;44.30;;;;;;5059903;28;20234;-89
2021/04/22 09:50:49;;;;;;;23.17;15.57;;;16.20;44.60;;;;;;5054093;28;20200;-89
2021/04/22 09:53:17;;;;;;;18.33;15.35;;;15.80;46.00;;;;;;5045899;28;20230;-88
2021/04/22 09:55:45;;;;;;;20.25;15.70;;;15.70;47.20;;;;;;5048173;28;20196;-88
2021/04/22 09:58:11;;;;;;;18.85;15.50;;;15.40;47.40;;;;;;5053452;28;20594;-92
2021/04/22 10:00:38;;;;;;;17.80;15.70;;;15.50;48.60;;;;;;5042780;28;20210;-91
2021/04/22 10:03:09;;;;;;;17.08;14.57;;;16.10;46.40;;;;;;5051823;28;20225;-87
2021/04/22 10:05:38;;;;;;;18.65;14.80;;;17.00;46.10;;;;;;5053381;28;20210;-91
2021/04/22 10:08:07;;;;;;;19.38;15.70;;;17.70;40.60;;;;;;5051794;28;20226;-89
2021/04/22 10:10:35;;;;;;;18.52;14.68;;;17.90;38.30;;;;;;5047132;28;20225;-90
2021/04/22 10:13:03;;;;;;;18.02;16.10;;;17.80;38.70;;;;;;5060733;28;20229;-90
2021/04/22 10:15:31;;;;;;;19.45;14.95;;;17.30;38.30;;;;;;5063306;28;20233;-91
2021/04/22 10:18:00;;;;;;;18.10;16.08;;;17.00;39.60;;;;;;5059223;28;20240;-89
2021/04/22 10:20:28;;;;;;;18.95;15.35;;;16.70;40.10;;;;;;5056655;28;20193;-90
2021/04/22 10:22:55;;;;;;;17.80;15.90;;;17.00;40.30;;;;;;5054312;28;20232;-89
2021/04/22 10:25:24;;;;;;;19.17;15.98;;;16.70;40.00;;;;;;5048386;28;20198;-91
2021/04/22 10:27:51;;;;;;;18.52;16.52;;;16.40;40.30;;;;;;5047317;28;20222;-90
2021/04/22 10:30:20;;;;;;;20.27;17.20;;;16.30;42.30;;;;;;5048567;28;20202;-90
2021/04/22 10:32:47;;;;;;;21.83;18.13;;;15.90;42.10;;;;;;5053311;28;20229;-90
2021/04/22 10:35:16;;;;;;;20.05;17.55;;;15.70;43.70;;;;;;5045952;28;20202;-90
2021/04/22 10:37:47;;;;;;;23.05;17.95;;;16.00;45.30;;;;;;5045968;28;20228;-91
2021/04/22 10:40:18;;;;;;;18.80;17.00;;;16.50;42.90;;;;;;5045119;28;20202;-90
2021/04/22 10:42:46;;;;;;;17.70;15.90;;;17.30;41.80;;;;;;5047492;28;20237;-89
2021/04/22 10:45:15;;;;;;;20.63;16.50;;;17.90;38.50;;;;;;5047591;28;20206;-88
2021/04/22 10:47:42;;;;;;;22.38;17.40;;;18.50;35.90;;;;;;5050423;28;20402;-89
2021/04/22 10:50:12;;;;;;;18.27;16.48;;;18.20;35.60;;;;;;5067399;28;20205;-88
2021/04/22 10:52:41;;;;;;;23.42;17.13;;;18.20;37.90;;;;;;5058379;28;20225;-89
2021/04/22 10:55:17;;;;;;;20.90;16.92;;;17.70;37.40;;;;;;5065435;28;20197;-88
2021/04/22 10:57:43;;;;;;;19.05;15.63;;;17.50;38.90;;;;;;5053152;28;20226;-89
2021/04/22 11:00:13;;;;;;;17.73;15.90;;;18.10;38.60;;;;;;5052831;28;20248;-87
2021/04/22 11:02:46;;;;;;;21.15;16.50;;;19.00;35.80;;;;;;5056803;28;20238;-88
2021/04/22 11:05:24;;;;;;;18.92;16.85;;;19.30;37.10;;;;;;5057062;28;20194;-89
2021/04/22 11:08:03;;;;;;;18.40;16.52;;;18.90;34.70;;;;;;5055687;28;20275;-91
2021/04/22 11:10:36;;;;;;;19.05;17.05;;;18.50;38.50;;;;;;5064476;28;20296;-90
2021/04/22 11:13:14;;;;;;;21.90;16.75;;;18.10;38.40;;;;;;5057444;28;20567;-88
2021/04/22 11:15:45;;;;;;;19.33;17.30;;;17.90;38.20;;;;;;5064820;28;20273;-88
2021/04/22 11:18:13;;;;;;;21.98;18.40;;;17.90;37.00;;;;;;5059088;28;20293;-89
2021/04/22 11:20:42;;;;;;;19.05;17.05;;;17.10;38.90;;;;;;5062413;28;20209;-89
2021/04/22 11:23:14;;;;;;;20.25;17.63;;;16.80;39.70;;;;;;5059058;28;20238;-93
2021/04/22 11:25:49;;;;;;;21.80;18.40;;;16.70;40.70;;;;;;5065348;28;20208;-93
2021/04/22 11:28:31;;;;;;;21.33;19.02;;;16.80;39.60;;;;;;5055727;28;20206;-92
2021/04/22 11:31:11;;;;;;;24.23;18.95;;;16.80;39.00;;;;;;5053443;28;20205;-92
2021/04/22 11:33:38;;;;;;;25.48;18.65;;;16.70;40.00;;;;;;5047744;28;20569;-93
2021/04/22 11:41:54;;;;;;;20.67;18.48;;;17.00;38.10;;;;;;5041914;28;20656;-93
2021/04/22 11:44:32;;;;;;;22.88;19.73;;;16.80;39.50;;;;;;5061714;28;20209;-91
2021/04/22 11:47:00;;;;;;;27.52;20.73;;;16.70;39.90;;;;;;5051765;28;20305;-92
2021/04/22 11:49:30;;;;;;;24.92;20.50;;;17.00;39.50;;;;;;5055490;28;20276;-92
2021/04/22 11:54:41;;;;;;;25.35;21.30;;;17.10;38.00;;;;;;5052137;28;21968;-94
2021/04/22 11:57:12;;;;;;;24.15;21.08;;;17.20;37.70;;;;;;5048967;28;20305;-93
2021/04/22 11:59:53;;;;;;;22.25;19.63;;;16.90;37.60;;;;;;5046227;28;20553;-91
2021/04/22 12:02:26;;;;;;;25.60;20.58;;;16.50;39.30;;;;;;5054249;28;20228;-92
2021/04/22 12:04:57;;;;;;;24.55;19.77;;;16.40;40.00;;;;;;5064299;28;20201;-91
2021/04/22 12:07:46;;;;;;;26.33;20.85;;;16.30;40.40;;;;;;5058764;28;20249;-91
2021/04/22 12:10:17;;;;;;;30.58;20.23;;;16.50;41.30;;;;;;5058751;28;20604;-91
2021/04/22 12:12:48;;;;;;;23.23;20.73;;;16.60;40.30;;;;;;5035824;28;20229;-90
2021/04/22 12:15:18;;;;;;;23.33;20.83;;;16.40;40.00;;;;;;5057925;28;20209;-90
2021/04/22 12:17:45;;;;;;;27.63;20.08;;;16.30;39.30;;;;;;5059709;28;20236;-89
2021/04/22 12:20:18;;;;;;;26.02;21.80;;;15.90;38.80;;;;;;5055072;28;20226;-91
2021/04/22 12:25:52;;;;;;;23.23;20.08;;;15.30;42.20;;;;;;5067844;28;20220;-92
2021/04/22 12:28:20;;;;;;;23.52;20.85;;;15.60;41.40;;;;;;5050633;28;20230;-92
2021/04/22 12:34:11;;;;;;;28.00;21.23;;;15.70;39.50;;;;;;5062662;28;20209;-91
2021/04/22 12:36:41;;;;;;;26.80;21.75;;;16.00;39.30;;;;;;5055097;28;20419;-90
2021/04/22 12:39:29;;;;;;;23.75;20.15;;;16.00;40.00;;;;;;5081675;28;20228;-89
2021/04/22 12:45:24;;;;;;;23.95;19.92;;;15.70;40.10;;;;;;5066151;28;20220;-93
2021/04/22 12:47:53;;;;;;;27.20;19.98;;;15.70;39.70;;;;;;5060620;28;20592;-91
2021/04/22 12:50:43;;;;;;;24.80;20.67;;;15.70;39.90;;;;;;5062335;28;20208;-89
2021/04/22 13:07:47;;;;;;;22.10;17.17;;;15.50;35.70;;;;;;5533686;22;20241;-91
2021/04/22 13:10:51;;;;;;;27.90;18.10;;;15.30;37.00;;;;;;5076271;28;20205;-92
2021/04/22 13:13:18;;;;;;;19.00;15.95;;;15.40;37.90;;;;;;5069134;28;20229;-92
2021/04/22 13:15:46;;;;;;;20.75;17.55;;;15.20;35.70;;;;;;5072605;28;20197;-90
2021/04/22 13:18:17;;;;;;;19.73;16.80;;;14.90;37.10;;;;;;5070449;28;20229;-90
2021/04/22 13:20:48;;;;;;;19.08;15.65;;;15.00;37.00;;;;;;5044875;28;20237;-91
2021/04/22 13:23:33;;;;;;;21.90;16.77;;;14.90;35.90;;;;;;5053542;28;20301;-90
2021/04/22 13:25:59;;;;;;;19.45;15.82;;;14.80;36.90;;;;;;5069614;28;20220;-91